createdAt,value
2018-07-20T00:01:16.377Z,100911.23
2018-07-20T00:03:45.131Z,100913.77
2018-07-20T00:06:13.905Z,100910.38
2018-07-20T00:08:42.630Z,100908.83
2018-07-20T00:11:11.440Z,100905.60
2018-07-20T00:13:40.200Z,100901.17
2018-07-20T00:16:08.913Z,100903.20
2018-07-20T00:18:37.605Z,100897.92
2018-07-20T00:21:06.370Z,100898.94
2018-07-20T00:23:35.227Z,100900.11
2018-07-20T00:26:04.747Z,100899.76
2018-07-20T00:28:33.553Z,100897.89
2018-07-20T00:31:02.500Z,100888.53
2018-07-20T00:33:32.091Z,100890.05
2018-07-20T00:36:00.874Z,100889.03
2018-07-20T00:38:29.635Z,100882.89
2018-07-20T00:40:58.403Z,100883.20
2018-07-20T00:43:27.143Z,100878.97
2018-07-20T00:45:55.895Z,100879.28
2018-07-20T00:48:24.805Z,100881.37
2018-07-20T00:50:53.711Z,100882.03
2018-07-20T00:53:22.490Z,100877.95
2018-07-20T00:55:51.281Z,100881.33
2018-07-20T00:58:19.999Z,100883.04
2018-07-20T01:00:48.809Z,100876.55
2018-07-20T01:03:17.658Z,100874.17
2018-07-20T01:05:46.406Z,100877.24
2018-07-20T01:08:15.185Z,100879.42
2018-07-20T01:10:43.937Z,100872.46
2018-07-20T01:13:12.653Z,100871.95
2018-07-20T01:15:41.492Z,100866.83
2018-07-20T01:18:10.268Z,100868.53
2018-07-20T01:20:39.029Z,100866.98
2018-07-20T01:23:07.825Z,100865.62
2018-07-20T01:25:36.586Z,100865.45
2018-07-20T01:28:05.386Z,100870.36
2018-07-20T01:30:34.088Z,100864.76
2018-07-20T01:33:02.894Z,100864.76
2018-07-20T01:35:31.775Z,100868.65
2018-07-20T01:38:00.526Z,100862.70
2018-07-20T01:40:29.211Z,100863.55
2018-07-20T01:42:57.964Z,100862.19
2018-07-20T01:45:26.834Z,100863.36
2018-07-20T01:47:55.584Z,100862.00
2018-07-20T01:50:24.395Z,100851.64
2018-07-20T01:52:53.098Z,100857.59
2018-07-20T01:55:21.829Z,100856.23
2018-07-20T01:57:50.611Z,100858.26
2018-07-20T02:00:19.376Z,100858.26
2018-07-20T02:02:48.134Z,100855.53
2018-07-20T02:05:16.893Z,100850.44
2018-07-20T02:07:45.615Z,100844.45
2018-07-20T02:10:14.374Z,100842.08
2018-07-20T02:12:43.150Z,100837.29
2018-07-20T02:15:11.950Z,100839.85
2018-07-20T02:17:40.738Z,100850.04
2018-07-20T02:20:09.506Z,100847.97
2018-07-20T02:22:38.246Z,100843.38
2018-07-20T02:25:07.025Z,100845.91
2018-07-20T02:27:35.767Z,100841.66
2018-07-20T02:30:05.045Z,100841.98
2018-07-20T02:32:33.830Z,100842.32
2018-07-20T02:35:02.574Z,100835.00
2018-07-20T02:37:31.403Z,100834.50
2018-07-20T02:40:00.200Z,100837.37
2018-07-20T02:42:28.947Z,100840.09
2018-07-20T02:44:57.735Z,100831.92
2018-07-20T02:47:26.479Z,100833.29
2018-07-20T02:49:55.324Z,100826.79
2018-07-20T02:52:24.094Z,100824.06
2018-07-20T02:54:52.839Z,100830.71
2018-07-20T02:57:21.563Z,100827.64
2018-07-20T02:59:50.299Z,100833.95
2018-07-20T03:02:19.012Z,100834.80
2018-07-20T03:04:47.745Z,100827.98
2018-07-20T03:07:16.521Z,100830.17
2018-07-20T03:09:45.438Z,100827.45
2018-07-20T03:12:14.185Z,100827.14
2018-07-20T03:14:42.916Z,100821.18
2018-07-20T03:17:11.773Z,100822.00
2018-07-20T03:19:40.581Z,100822.00
2018-07-20T03:22:09.343Z,100819.97
2018-07-20T03:24:38.081Z,100817.24
2018-07-20T03:27:06.840Z,100811.80
2018-07-20T03:29:35.586Z,100812.96
2018-07-20T03:32:04.319Z,100813.31
2018-07-20T03:34:33.066Z,100816.18
2018-07-20T03:37:01.824Z,100813.45
2018-07-20T03:39:30.630Z,100815.50
2018-07-20T03:41:59.423Z,100815.66
2018-07-20T03:44:28.117Z,100817.36
2018-07-20T03:46:56.849Z,100818.33
2018-07-20T03:49:25.609Z,100817.31
2018-07-20T03:51:54.429Z,100821.03
2018-07-20T03:54:23.157Z,100822.20
2018-07-20T03:56:51.897Z,100825.06
2018-07-20T03:59:20.636Z,100822.18
2018-07-20T04:01:49.397Z,100822.33
2018-07-20T04:04:18.041Z,100824.34
2018-07-20T04:06:46.781Z,100827.72
2018-07-20T04:09:15.553Z,100831.95
2018-07-20T04:11:44.232Z,100825.14
2018-07-20T04:14:12.938Z,100821.71
2018-07-20T04:16:41.829Z,100823.07
2018-07-20T04:19:10.556Z,100823.41
2018-07-20T04:21:39.345Z,100819.33
2018-07-20T04:24:08.106Z,100822.40
2018-07-20T04:26:36.925Z,100817.45
2018-07-20T04:29:05.672Z,100821.03
2018-07-20T04:31:34.428Z,100814.22
2018-07-20T04:34:03.273Z,100813.71
2018-07-20T04:36:31.987Z,100813.71
2018-07-20T04:39:00.853Z,100815.59
2018-07-20T04:41:29.635Z,100815.89
2018-07-20T04:43:58.473Z,100812.35
2018-07-20T04:46:27.149Z,100808.27
2018-07-20T04:48:55.953Z,100810.14
2018-07-20T04:51:24.661Z,100809.08
2018-07-20T04:53:53.332Z,100811.30
2018-07-20T04:56:22.040Z,100806.19
2018-07-20T04:58:50.856Z,100805.68
2018-07-20T05:01:19.624Z,100813.66
2018-07-20T05:03:48.537Z,100806.64
2018-07-20T05:06:17.241Z,100805.12
2018-07-20T05:08:45.952Z,100811.56
2018-07-20T05:11:14.759Z,100804.04
2018-07-20T05:13:43.546Z,100803.33
2018-07-20T05:16:12.345Z,100809.78
2018-07-20T05:18:41.069Z,100806.84
2018-07-20T05:21:09.780Z,100805.97
2018-07-20T05:23:38.669Z,100810.23
2018-07-20T05:26:07.409Z,100810.20
2018-07-20T05:28:36.178Z,100810.34
2018-07-20T05:31:05.066Z,100807.77
2018-07-20T05:33:33.777Z,100803.27
2018-07-20T05:36:02.542Z,100807.19
2018-07-20T05:38:31.443Z,100798.30
2018-07-20T05:41:00.202Z,100795.20
2018-07-20T05:43:28.995Z,100795.34
2018-07-20T05:45:57.954Z,100795.98
2018-07-20T05:48:26.710Z,100795.62
2018-07-20T05:50:55.556Z,100795.75
2018-07-20T05:53:24.386Z,100790.44
2018-07-20T05:55:53.097Z,100785.63
2018-07-20T05:58:21.843Z,100786.11
2018-07-20T06:00:50.573Z,100789.48
2018-07-20T06:03:19.426Z,100789.11
2018-07-20T06:05:48.196Z,100784.30
2018-07-20T06:08:17.005Z,100779.50
2018-07-20T06:10:45.823Z,100782.36
2018-07-20T06:13:14.597Z,100776.22
2018-07-20T06:15:43.318Z,100775.87
2018-07-20T06:18:12.106Z,100775.16
2018-07-20T06:20:40.818Z,100778.02
2018-07-20T06:23:09.574Z,100767.75
2018-07-20T06:25:38.322Z,100774.37
2018-07-20T06:28:07.085Z,100771.27
2018-07-20T06:30:35.846Z,100772.25
2018-07-20T06:33:04.658Z,100770.70
2018-07-20T06:35:33.456Z,100768.11
2018-07-20T06:38:02.211Z,100771.48
2018-07-20T06:40:30.925Z,100773.84
2018-07-20T06:42:59.793Z,100770.39
2018-07-20T06:45:28.713Z,100770.39
2018-07-20T06:47:57.445Z,100766.42
2018-07-20T06:50:26.168Z,100765.40
2018-07-20T06:52:54.913Z,100766.55
2018-07-20T06:55:23.844Z,100759.22
2018-07-20T06:57:52.588Z,100765.84
2018-07-20T07:00:21.337Z,100761.02
2018-07-20T07:02:50.129Z,100755.38
2018-07-20T07:05:18.877Z,100752.45
2018-07-20T07:07:47.637Z,100752.79
2018-07-20T07:10:16.422Z,100754.45
2018-07-20T07:12:45.134Z,100756.16
2018-07-20T07:15:13.913Z,100749.16
2018-07-20T07:17:42.783Z,100745.19
2018-07-20T07:20:11.595Z,100741.41
2018-07-20T07:22:40.326Z,100744.47
2018-07-20T07:25:09.133Z,100741.53
2018-07-20T07:27:37.871Z,100736.92
2018-07-20T07:30:06.709Z,100738.96
2018-07-20T07:32:35.587Z,100737.08
2018-07-20T07:35:04.393Z,100730.26
2018-07-20T07:37:33.109Z,100734.14
2018-07-20T07:40:02.750Z,100736.88
2018-07-20T07:42:31.481Z,100736.88
2018-07-20T07:45:00.199Z,100730.05
2018-07-20T07:47:28.985Z,100732.60
2018-07-20T07:49:57.854Z,100730.90
2018-07-20T07:52:26.650Z,100735.51
2018-07-20T07:54:55.374Z,100729.74
2018-07-20T07:57:24.165Z,100729.23
2018-07-20T07:59:52.918Z,100734.69
2018-07-20T08:02:21.719Z,100727.53
2018-07-20T08:04:50.450Z,100727.02
2018-07-20T08:07:19.164Z,100723.61
2018-07-20T08:09:47.885Z,100729.25
2018-07-20T08:12:16.705Z,100727.58
2018-07-20T08:14:45.474Z,100727.75
2018-07-20T08:17:14.162Z,100730.69
2018-07-20T08:19:42.913Z,100728.69
2018-07-20T08:22:11.646Z,100729.20
2018-07-20T08:24:40.586Z,100728.34
2018-07-20T08:27:09.298Z,100732.10
2018-07-20T08:29:38.040Z,100724.13
2018-07-20T08:32:06.916Z,100721.57
2018-07-20T08:34:35.632Z,100722.12
2018-07-20T08:37:04.367Z,100722.29
2018-07-20T08:39:33.102Z,100716.53
2018-07-20T08:42:01.797Z,100717.55
2018-07-20T08:44:30.581Z,100717.77
2018-07-20T08:46:59.330Z,100714.19
2018-07-20T08:49:28.188Z,100712.99
2018-07-20T08:51:56.957Z,100715.72
2018-07-20T08:54:25.649Z,100713.72
2018-07-20T08:56:54.374Z,100709.62
2018-07-20T08:59:23.069Z,100706.59
2018-07-20T09:01:51.815Z,100713.92
2018-07-20T09:04:20.585Z,100708.98
2018-07-20T09:06:49.297Z,100707.79
2018-07-20T09:09:18.024Z,100703.91
2018-07-20T09:11:46.769Z,100701.17
2018-07-20T09:14:15.513Z,100713.12
2018-07-20T09:16:44.324Z,100710.08
2018-07-20T09:19:13.110Z,100706.50
2018-07-20T09:21:42.125Z,100703.64
2018-07-20T09:24:10.921Z,100695.45
2018-07-20T09:26:39.674Z,100699.22
2018-07-20T09:29:08.532Z,100702.48
2018-07-20T09:31:37.356Z,100702.66
2018-07-20T09:34:06.450Z,100694.17
2018-07-20T09:36:35.293Z,100697.92
2018-07-20T09:39:04.995Z,100691.10
2018-07-20T09:41:33.841Z,100687.19
2018-07-20T09:44:02.782Z,100684.66
2018-07-20T09:46:31.595Z,100681.94
2018-07-20T09:49:00.364Z,100677.50
2018-07-20T09:51:29.298Z,100672.26
2018-07-20T09:53:58.107Z,100672.77
2018-07-20T09:56:26.920Z,100666.67
2018-07-20T09:58:55.701Z,100668.03
2018-07-20T10:01:24.456Z,100666.33
2018-07-20T10:03:53.202Z,100669.61
2018-07-20T10:06:21.977Z,100666.88
2018-07-20T10:08:50.758Z,100668.42
2018-07-20T10:11:19.562Z,100665.69
2018-07-20T10:13:48.314Z,100662.11
2018-07-20T10:16:17.394Z,100656.99
2018-07-20T10:18:46.123Z,100653.41
2018-07-20T10:21:14.852Z,100646.28
2018-07-20T10:23:43.606Z,100649.02
2018-07-20T10:26:12.377Z,100647.31
2018-07-20T10:28:41.158Z,100646.80
2018-07-20T10:31:09.894Z,100636.03
2018-07-20T10:33:38.641Z,100634.67
2018-07-20T10:36:07.445Z,100632.48
2018-07-20T10:38:36.260Z,100637.39
2018-07-20T10:41:05.070Z,100635.21
2018-07-20T10:43:33.771Z,100633.30
2018-07-20T10:46:02.537Z,100634.36
2018-07-20T10:48:31.438Z,100628.05
2018-07-20T10:51:00.258Z,100632.66
2018-07-20T10:53:29.029Z,100629.08
2018-07-20T10:55:57.837Z,100632.66
2018-07-20T10:58:26.591Z,100633.69
2018-07-20T11:00:55.419Z,100627.20
2018-07-20T11:03:24.174Z,100624.14
2018-07-20T11:05:52.958Z,100617.86
2018-07-20T11:08:21.740Z,100619.74
2018-07-20T11:10:50.564Z,100620.59
2018-07-20T11:13:19.345Z,100618.38
2018-07-20T11:15:48.085Z,100619.23
2018-07-20T11:18:16.908Z,100608.31
2018-07-20T11:20:45.658Z,100604.73
2018-07-20T11:23:14.495Z,100604.73
2018-07-20T11:25:43.298Z,100599.28
2018-07-20T11:28:12.102Z,100595.70
2018-07-20T11:30:40.830Z,100594.85
2018-07-20T11:33:09.602Z,100587.52
2018-07-20T11:35:38.449Z,100587.01
2018-07-20T11:38:07.275Z,100589.73
2018-07-20T11:40:36.023Z,100585.64
2018-07-20T11:43:04.746Z,100578.83
2018-07-20T11:45:33.509Z,100576.09
2018-07-20T11:48:02.282Z,100579.34
2018-07-20T11:50:31.043Z,100575.76
2018-07-20T11:52:59.814Z,100571.67
2018-07-20T11:55:28.608Z,100568.94
2018-07-20T11:57:57.383Z,100568.94
2018-07-20T12:00:26.139Z,100566.73
2018-07-20T12:02:54.867Z,100553.94
2018-07-20T12:05:23.624Z,100561.61
2018-07-20T12:07:53.816Z,100558.87
2018-07-20T12:10:32.082Z,100550.91
2018-07-20T12:13:00.801Z,100557.72
2018-07-20T12:15:29.576Z,100553.09
2018-07-20T12:17:58.309Z,100555.00
2018-07-20T12:20:27.116Z,100557.72
2018-07-20T12:22:55.849Z,100549.84
2018-07-20T12:25:24.587Z,100548.48
2018-07-20T12:27:53.384Z,100548.69
2018-07-20T12:30:22.117Z,100556.16
2018-07-20T12:32:50.916Z,100554.45
2018-07-20T12:35:19.811Z,100551.72
2018-07-20T12:37:48.589Z,100549.00
2018-07-20T12:40:17.390Z,100544.27
2018-07-20T12:42:46.169Z,100547.84
2018-07-20T12:45:14.981Z,100549.20
2018-07-20T12:47:43.729Z,100544.60
2018-07-20T12:50:12.504Z,100546.99
2018-07-20T12:52:41.295Z,100551.94
2018-07-20T12:55:10.096Z,100559.09
2018-07-20T12:57:39.001Z,100560.11
2018-07-20T13:00:07.843Z,100553.63
2018-07-20T13:02:36.630Z,100562.33
2018-07-20T13:05:05.925Z,100559.78
2018-07-20T13:07:34.726Z,100556.88
2018-07-20T13:10:03.667Z,100558.23
2018-07-20T13:12:32.450Z,100561.48
2018-07-20T13:15:01.330Z,100563.70
2018-07-20T13:17:30.243Z,100567.45
2018-07-20T13:19:59.105Z,100561.14
2018-07-20T13:22:27.875Z,100566.09
2018-07-20T13:24:56.763Z,100558.96
2018-07-20T13:27:25.594Z,100565.78
2018-07-20T13:29:54.491Z,100570.69
2018-07-20T13:32:23.384Z,100574.27
2018-07-20T13:34:52.286Z,100563.05
2018-07-20T13:37:21.095Z,100567.97
2018-07-20T13:39:49.928Z,100558.42
2018-07-20T13:42:18.763Z,100560.33
2018-07-20T13:44:47.572Z,100554.87
2018-07-20T13:47:16.403Z,100554.87
2018-07-20T13:49:45.251Z,100552.95
2018-07-20T13:52:14.124Z,100550.23
2018-07-20T13:54:42.859Z,100546.99
2018-07-20T13:57:11.666Z,100537.95
2018-07-20T13:59:40.641Z,100534.41
2018-07-20T14:02:09.487Z,100534.92
2018-07-20T14:04:38.255Z,100531.34
2018-07-20T14:07:07.100Z,100533.23
2018-07-20T14:09:35.932Z,100527.77
2018-07-20T14:12:04.869Z,100530.20
2018-07-20T14:14:33.583Z,100530.50
2018-07-20T14:17:02.489Z,100519.59
2018-07-20T14:19:31.283Z,100527.77
2018-07-20T14:22:00.090Z,100520.44
2018-07-20T14:24:28.881Z,100516.34
2018-07-20T14:26:57.682Z,100511.74
2018-07-20T14:29:26.446Z,100504.92
2018-07-20T14:31:55.281Z,100508.50
2018-07-20T14:34:24.102Z,100507.95
2018-07-20T14:36:52.862Z,100498.11
2018-07-20T14:39:21.724Z,100497.05
2018-07-20T14:41:50.498Z,100492.44
2018-07-20T14:44:19.209Z,100494.14
2018-07-20T14:46:48.004Z,100502.32
2018-07-20T14:49:16.773Z,100500.45
2018-07-20T14:51:45.611Z,100500.95
2018-07-20T14:54:14.468Z,100507.78
2018-07-20T14:56:43.215Z,100514.59
2018-07-20T14:59:12.015Z,100510.50
2018-07-20T15:01:40.908Z,100518.69
2018-07-20T15:04:09.679Z,100520.05
2018-07-20T15:06:38.502Z,100521.93
2018-07-20T15:09:10.117Z,100513.41
2018-07-20T15:11:38.922Z,100514.77
2018-07-20T15:14:07.767Z,100527.05
2018-07-20T15:16:36.589Z,100539.87
2018-07-20T15:19:05.385Z,100546.86
2018-07-20T15:21:34.237Z,100541.41
2018-07-20T15:24:02.997Z,100534.59
2018-07-20T15:26:31.986Z,100534.29
2018-07-20T15:29:00.842Z,100531.56
2018-07-20T15:31:29.928Z,100532.07
2018-07-20T15:33:58.722Z,100530.38
2018-07-20T15:36:27.507Z,100526.80
2018-07-20T15:38:56.239Z,100532.25
2018-07-20T15:41:25.168Z,100531.44
2018-07-20T15:43:53.960Z,100526.49
2018-07-20T15:46:22.930Z,100524.79
2018-07-20T15:48:51.626Z,100521.55
2018-07-20T15:51:20.406Z,100510.00
2018-07-20T15:53:49.164Z,100510.30
2018-07-20T15:56:17.883Z,100508.30
2018-07-20T15:58:46.678Z,100508.64
2018-07-20T16:01:15.477Z,100508.13
2018-07-20T16:03:44.373Z,100508.13
2018-07-20T16:06:13.150Z,100500.45
2018-07-20T16:08:41.931Z,100497.22
2018-07-20T16:11:10.748Z,100503.31
2018-07-20T16:13:39.541Z,100501.61
2018-07-20T16:16:08.353Z,100501.44
2018-07-20T16:18:37.139Z,100503.31
2018-07-20T16:21:05.983Z,100504.67
2018-07-20T16:23:34.759Z,100498.70
2018-07-20T16:26:03.636Z,100501.44
2018-07-20T16:28:32.597Z,100501.44
2018-07-20T16:31:01.394Z,100498.16
2018-07-20T16:33:30.131Z,100498.16
2018-07-20T16:35:58.920Z,100495.77
2018-07-20T16:38:27.775Z,100491.67
2018-07-20T16:40:56.556Z,100500.70
2018-07-20T16:43:25.338Z,100492.19
2018-07-20T16:45:54.140Z,100488.09
2018-07-20T16:48:22.904Z,100487.59
2018-07-20T16:50:51.630Z,100480.43
2018-07-20T16:53:20.410Z,100483.49
2018-07-20T16:55:49.273Z,100484.34
2018-07-20T16:58:18.111Z,100455.78
2018-07-20T17:00:46.983Z,100481.28
2018-07-20T17:03:15.725Z,100483.49
2018-07-20T17:05:44.650Z,100483.49
2018-07-20T17:08:13.468Z,100482.47
2018-07-20T17:10:42.277Z,100492.02
2018-07-20T17:13:11.050Z,100491.16
2018-07-20T17:15:39.786Z,100488.95
2018-07-20T17:18:08.629Z,100482.13
2018-07-20T17:20:37.428Z,100481.28
2018-07-20T17:23:06.711Z,100479.41
2018-07-20T17:25:35.536Z,100485.70
2018-07-20T17:28:04.555Z,100487.25
2018-07-20T17:30:33.643Z,100492.19
2018-07-20T17:33:02.520Z,100498.49
2018-07-20T17:35:31.477Z,100494.41
2018-07-20T17:38:00.334Z,100497.34
2018-07-20T17:40:29.385Z,100505.52
2018-07-20T17:42:58.256Z,100507.70
2018-07-20T17:45:27.096Z,100506.03
2018-07-20T17:47:56.117Z,100505.19
2018-07-20T17:50:24.975Z,100510.43
2018-07-20T17:52:53.826Z,100507.40
2018-07-20T17:55:22.709Z,100515.58
2018-07-20T17:57:51.580Z,100518.31
2018-07-20T18:00:20.513Z,100521.89
2018-07-20T18:02:49.398Z,100518.31
2018-07-20T18:05:18.260Z,100511.16
2018-07-20T18:07:47.077Z,100514.22
2018-07-20T18:10:16.044Z,100499.94
2018-07-20T18:12:44.916Z,100501.31
2018-07-20T18:15:13.703Z,100498.58
2018-07-20T18:17:46.726Z,100495.85
2018-07-20T18:20:15.687Z,100498.88
2018-07-20T18:22:44.531Z,100494.66
2018-07-20T18:25:14.161Z,100495.85
2018-07-20T18:27:43.099Z,100489.55
2018-07-20T18:30:11.903Z,100489.55
2018-07-20T18:32:40.721Z,100489.55
2018-07-20T18:35:09.745Z,100488.19
2018-07-20T18:37:38.558Z,100490.58
2018-07-20T18:40:07.671Z,100487.52
2018-07-20T18:42:36.512Z,100490.06
2018-07-20T18:45:05.624Z,100493.81
2018-07-20T18:47:34.383Z,100495.52
2018-07-20T18:50:03.384Z,100492.97
2018-07-20T18:52:32.190Z,100497.39
2018-07-20T18:55:00.985Z,100491.61
2018-07-20T18:57:29.810Z,100497.91
2018-07-20T18:59:58.648Z,100491.09
2018-07-20T19:02:27.453Z,100492.45
2018-07-20T19:04:56.369Z,100496.23
2018-07-20T19:07:25.195Z,100494.87
2018-07-20T19:09:53.960Z,100492.66
2018-07-20T19:12:22.786Z,100495.91
2018-07-20T19:14:51.566Z,100499.48
2018-07-20T19:17:20.340Z,100491.81
2018-07-20T19:19:49.126Z,100501.70
2018-07-20T19:22:17.875Z,100493.17
2018-07-20T19:24:46.647Z,100494.20
2018-07-20T19:27:15.418Z,100497.78
2018-07-20T19:29:44.272Z,100499.14
2018-07-20T19:32:13.081Z,100491.17
2018-07-20T19:34:41.899Z,100493.39
2018-07-20T19:37:10.683Z,100492.84
2018-07-20T19:39:39.671Z,100488.95
2018-07-20T19:42:08.542Z,100490.32
2018-07-20T19:44:37.343Z,100490.84
2018-07-20T19:47:06.131Z,100499.02
2018-07-20T19:49:34.955Z,100495.44
2018-07-20T19:52:03.794Z,100496.50
2018-07-20T19:54:32.589Z,100490.53
2018-07-20T19:57:01.447Z,100489.86
2018-07-20T19:59:30.275Z,100493.44
2018-07-20T20:01:59.078Z,100491.22
2018-07-20T20:04:27.803Z,100495.31
2018-07-20T20:06:56.641Z,100495.86
2018-07-20T20:09:25.543Z,100463.41
2018-07-20T20:11:54.324Z,100498.77
2018-07-20T20:14:23.074Z,100488.91
2018-07-20T20:16:51.884Z,100492.67
2018-07-20T20:19:20.695Z,100486.37
2018-07-20T20:21:49.529Z,100489.09
2018-07-20T20:24:18.361Z,100493.70
2018-07-20T20:26:47.199Z,100488.79
2018-07-20T20:29:16.043Z,100487.42
2018-07-20T20:31:44.811Z,100490.66
2018-07-20T20:34:13.631Z,100485.73
2018-07-20T20:36:42.430Z,100487.61
2018-07-20T20:39:12.890Z,100483.52
2018-07-20T20:41:41.979Z,100489.48
2018-07-20T20:44:11.046Z,100485.09
2018-07-20T20:46:40.399Z,100482.88
2018-07-20T20:49:10.750Z,100482.88
2018-07-20T20:51:39.521Z,100487.48
2018-07-20T20:54:08.423Z,100478.78
2018-07-20T20:56:38.573Z,100477.94
2018-07-20T20:59:08.255Z,100477.94
2018-07-20T21:01:37.080Z,100477.08
2018-07-20T21:04:06.019Z,100478.78
2018-07-20T21:06:34.822Z,100475.20
2018-07-20T21:09:03.876Z,100479.63
2018-07-20T21:11:32.676Z,100476.57
2018-07-20T21:14:01.690Z,100471.63
2018-07-20T21:16:30.521Z,100476.57
2018-07-20T21:18:59.280Z,100465.33
2018-07-20T21:21:28.088Z,100465.33
2018-07-20T21:23:56.880Z,100466.17
2018-07-20T21:26:25.754Z,100470.78
2018-07-20T21:28:54.592Z,100471.12
2018-07-20T21:31:23.372Z,100469.42
2018-07-20T21:33:52.167Z,100468.05
2018-07-20T21:36:20.942Z,100469.96
2018-07-20T21:38:49.670Z,100470.78
2018-07-20T21:41:18.412Z,100463.15
2018-07-20T21:43:47.214Z,100465.88
2018-07-20T21:46:16.001Z,100463.97
2018-07-20T21:48:44.824Z,100468.05
2018-07-20T21:51:13.628Z,100461.78
2018-07-20T21:53:42.380Z,100459.57
2018-07-20T21:56:11.173Z,100462.30
2018-07-20T21:58:39.986Z,100465.53
2018-07-20T22:01:09.534Z,100467.23
2018-07-20T22:03:38.390Z,100466.05
2018-07-20T22:06:07.241Z,100460.94
2018-07-20T22:08:36.127Z,100459.57
2018-07-20T22:11:05.227Z,100459.75
2018-07-20T22:13:34.110Z,100459.75
2018-07-20T22:16:02.928Z,100459.23
2018-07-20T22:18:31.725Z,100456.20
2018-07-20T22:21:00.551Z,100462.48
2018-07-20T22:23:29.624Z,100458.08
2018-07-20T22:25:58.401Z,100463.84
2018-07-20T22:28:27.197Z,100460.81
2018-07-20T22:30:55.964Z,100474.74
2018-07-20T22:33:24.710Z,100465.08
2018-07-20T22:35:53.500Z,100468.65
2018-07-20T22:38:22.325Z,100464.05
2018-07-20T22:40:51.062Z,100461.84
2018-07-20T22:43:19.864Z,100469.50
2018-07-20T22:45:48.720Z,100465.08
2018-07-20T22:48:17.574Z,100464.56
2018-07-20T22:50:46.393Z,100469.70
2018-07-20T22:53:15.196Z,100465.62
2018-07-20T22:55:43.927Z,100470.02
2018-07-20T22:58:12.653Z,100462.89
2018-07-20T23:00:41.465Z,100464.26
2018-07-20T23:03:10.235Z,100465.28
2018-07-20T23:05:39.041Z,100463.41
2018-07-20T23:08:07.897Z,100466.98
2018-07-20T23:10:36.713Z,100463.92
2018-07-20T23:13:05.590Z,100463.41
2018-07-20T23:15:34.359Z,100468.52
2018-07-20T23:18:03.226Z,100464.95
2018-07-20T23:20:32.035Z,100465.80
2018-07-20T23:23:00.802Z,100467.67
2018-07-20T23:25:29.601Z,100466.31
2018-07-20T23:27:58.337Z,100461.92
2018-07-20T23:30:27.109Z,100459.91
2018-07-20T23:32:55.835Z,100465.37
2018-07-20T23:35:24.744Z,100464.00
2018-07-20T23:37:53.572Z,100461.80
2018-07-20T23:40:22.434Z,100463.16
2018-07-20T23:42:51.279Z,100460.43
2018-07-20T23:45:20.041Z,100457.19
2018-07-20T23:47:48.856Z,100458.22
2018-07-20T23:50:17.640Z,100463.16
2018-07-20T23:52:46.430Z,100460.94
2018-07-20T23:55:15.174Z,100457.19
2018-07-20T23:57:43.929Z,100458.73
